Time;durP1;ratioP1;P1;durP2;ratioP2;P2;SDS_P1;SDS_P2;PMS_P1;PMS_P2;Temp;Humidity;BMP_temperature;BMP_pressure;BME280_temperature;BME280_humidity;BME280_pressure;Samples;Min_cycle;Max_cycle;Signal;HPM_P1;HPM_P2
2022/03/06 00:00:49;;;;;;;17.75;2.58;;;22.30;99.90;;;;;;5039297;28;20204;-80
2022/03/06 00:03:19;;;;;;;19.08;2.97;;;22.30;99.90;;;;;;5039198;28;20194;-80
2022/03/06 00:05:50;;;;;;;20.48;2.70;;;22.40;99.90;;;;;;5039235;28;20194;-81
2022/03/06 00:08:21;;;;;;;11.95;2.15;;;22.40;99.90;;;;;;5050318;28;20193;-80
2022/03/06 00:10:52;;;;;;;17.55;2.75;;;22.40;99.90;;;;;;5059277;28;20193;-81
2022/03/06 00:13:24;;;;;;;17.67;2.63;;;22.40;99.90;;;;;;5051152;28;20297;-80
2022/03/06 00:15:55;;;;;;;13.43;2.10;;;22.50;99.90;;;;;;5055309;28;20251;-80
2022/03/06 00:18:26;;;;;;;18.00;2.40;;;22.50;99.90;;;;;;5052905;28;20218;-80
2022/03/06 00:20:59;;;;;;;16.38;2.38;;;22.60;99.90;;;;;;5036069;28;20190;-81
2022/03/06 00:23:29;;;;;;;20.55;2.65;;;22.50;99.90;;;;;;5035991;28;20630;-81
2022/03/06 00:26:00;;;;;;;18.80;2.42;;;22.60;99.90;;;;;;5035998;28;20673;-80
2022/03/06 00:28:32;;;;;;;15.20;2.45;;;22.60;99.90;;;;;;5035775;28;20260;-80
2022/03/06 00:31:03;;;;;;;19.50;2.95;;;22.60;99.90;;;;;;5042881;28;20186;-80
2022/03/06 00:33:34;;;;;;;24.45;2.72;;;22.60;99.90;;;;;;5055586;28;20196;-81
2022/03/06 00:36:05;;;;;;;19.65;2.75;;;22.60;99.90;;;;;;5055757;28;20276;-81
2022/03/06 00:38:35;;;;;;;20.80;2.78;;;22.60;99.90;;;;;;5055339;28;20237;-82
2022/03/06 00:41:06;;;;;;;18.15;2.50;;;22.60;99.90;;;;;;5055570;28;20194;-80
2022/03/06 00:43:39;;;;;;;13.40;2.22;;;22.60;99.90;;;;;;5055532;28;20578;-81
2022/03/06 00:46:10;;;;;;;13.45;2.35;;;22.60;99.90;;;;;;5055545;28;20247;-81
2022/03/06 00:48:41;;;;;;;19.60;2.53;;;22.70;99.90;;;;;;5055185;28;20197;-80
2022/03/06 00:51:14;;;;;;;11.40;2.13;;;22.70;99.90;;;;;;5055414;28;20185;-81
2022/03/06 00:53:46;;;;;;;13.80;2.05;;;22.80;99.90;;;;;;5055405;28;20193;-83
2022/03/06 00:56:17;;;;;;;12.40;2.33;;;23.00;99.90;;;;;;5054813;28;20205;-81
2022/03/06 00:58:49;;;;;;;14.30;2.45;;;23.20;99.90;;;;;;5055213;28;20233;-81
2022/03/06 01:01:20;;;;;;;11.75;1.70;;;23.30;99.90;;;;;;5055240;28;20186;-81
2022/03/06 01:03:51;;;;;;;7.55;1.58;;;23.40;99.90;;;;;;5055114;28;20208;-81
2022/03/06 01:06:21;;;;;;;8.75;1.33;;;23.30;99.90;;;;;;5055169;28;20200;-80
2022/03/06 01:08:52;;;;;;;5.47;1.40;;;23.30;99.90;;;;;;5048233;28;20714;-80
2022/03/06 01:11:23;;;;;;;8.85;1.33;;;23.20;99.90;;;;;;5035082;28;20195;-85
2022/03/06 01:13:55;;;;;;;6.50;1.23;;;23.10;99.90;;;;;;5047184;28;20221;-81
2022/03/06 01:16:29;;;;;;;7.30;1.50;;;23.10;99.90;;;;;;5034894;28;20199;-82
2022/03/06 01:19:00;;;;;;;5.28;1.17;;;23.00;99.90;;;;;;5045681;28;20241;-82
2022/03/06 01:21:30;;;;;;;8.25;1.70;;;23.00;99.90;;;;;;5054921;28;20189;-80
2022/03/06 01:24:01;;;;;;;6.45;1.33;;;22.90;99.90;;;;;;5054768;28;20703;-82
2022/03/06 01:26:32;;;;;;;8.40;1.30;;;22.90;99.90;;;;;;5054879;28;20201;-83
2022/03/06 01:29:05;;;;;;;4.32;1.05;;;22.80;99.90;;;;;;5054140;28;20248;-81
2022/03/06 01:31:39;;;;;;;5.35;1.20;;;22.80;99.90;;;;;;5039974;28;20194;-81
2022/03/06 01:34:10;;;;;;;8.32;1.50;;;22.90;99.90;;;;;;5034624;28;20699;-81
2022/03/06 01:36:41;;;;;;;7.03;1.42;;;23.00;99.90;;;;;;5034617;28;20248;-79
2022/03/06 01:39:14;;;;;;;4.68;1.00;;;23.10;99.90;;;;;;5034296;28;20333;-84
2022/03/06 01:41:48;;;;;;;7.72;1.35;;;23.20;99.90;;;;;;5034520;28;20217;-86
2022/03/06 01:44:20;;;;;;;5.88;1.40;;;23.40;99.90;;;;;;5034464;28;20190;-81
2022/03/06 01:46:51;;;;;;;7.45;1.50;;;23.60;99.90;;;;;;5034283;28;20217;-81
2022/03/06 01:49:23;;;;;;;8.55;1.40;;;23.70;99.90;;;;;;5034356;28;20190;-82
2022/03/06 01:51:53;;;;;;;8.38;1.85;;;24.00;99.90;;;;;;5034316;28;20194;-85
2022/03/06 01:54:34;;;;;;;9.40;1.60;;;24.00;99.90;;;;;;5034282;28;20270;-83
2022/03/06 01:57:05;;;;;;;7.43;1.60;;;24.00;99.90;;;;;;5034266;28;20191;-83
2022/03/06 01:59:38;;;;;;;12.32;1.98;;;24.00;99.90;;;;;;5034031;28;20665;-80
2022/03/06 02:02:09;;;;;;;8.25;1.45;;;24.00;99.90;;;;;;5034135;28;20190;-82
2022/03/06 02:04:40;;;;;;;12.32;1.60;;;24.00;99.90;;;;;;5034011;28;20238;-82
2022/03/06 02:07:10;;;;;;;9.45;2.20;;;24.10;99.90;;;;;;5040450;28;20225;-81
2022/03/06 02:09:41;;;;;;;7.28;1.48;;;24.30;99.90;;;;;;5054164;28;20267;-80
2022/03/06 02:12:26;;;;;;;7.15;1.38;;;24.30;99.90;;;;;;5052059;28;20217;-80
2022/03/06 02:14:59;;;;;;;7.35;1.67;;;24.20;99.90;;;;;;5042430;28;20642;-82
2022/03/06 02:17:31;;;;;;;8.85;1.45;;;24.30;99.90;;;;;;5033806;28;20194;-80
2022/03/06 02:20:06;;;;;;;6.35;1.90;;;24.30;99.90;;;;;;5053408;28;20194;-80
2022/03/06 02:22:40;;;;;;;5.88;1.35;;;24.30;99.90;;;;;;5053726;28;20645;-84
2022/03/06 02:25:13;;;;;;;6.47;1.60;;;24.20;99.90;;;;;;5053564;28;20197;-82
2022/03/06 02:27:43;;;;;;;8.57;1.33;;;24.20;99.90;;;;;;5053582;28;20649;-85
2022/03/06 02:30:17;;;;;;;6.43;1.70;;;24.20;99.90;;;;;;5049848;28;20182;-83
2022/03/06 02:32:48;;;;;;;9.00;2.00;;;24.10;99.90;;;;;;5033674;28;20205;-81
2022/03/06 02:35:20;;;;;;;7.28;1.45;;;24.10;99.90;;;;;;5033619;28;20630;-85
2022/03/06 02:37:53;;;;;;;6.85;1.60;;;24.00;99.90;;;;;;5033388;28;20605;-83
2022/03/06 02:40:27;;;;;;;7.55;1.45;;;24.00;99.90;;;;;;5033065;28;20198;-85
2022/03/06 02:42:59;;;;;;;5.97;1.58;;;24.00;99.90;;;;;;5033722;28;20186;-84
2022/03/06 02:45:34;;;;;;;6.90;1.55;;;23.90;99.90;;;;;;5033638;28;20202;-90
2022/03/06 02:48:05;;;;;;;7.30;1.50;;;23.90;99.90;;;;;;5034097;28;20213;-85
2022/03/06 02:50:41;;;;;;;5.25;1.27;;;24.00;99.90;;;;;;5033588;28;20198;-86
2022/03/06 02:53:14;;;;;;;5.20;1.40;;;24.00;99.90;;;;;;5033775;28;20273;-88
2022/03/06 02:55:45;;;;;;;7.05;1.40;;;24.00;99.90;;;;;;5045620;28;20189;-85
2022/03/06 02:58:16;;;;;;;6.43;1.40;;;24.00;99.90;;;;;;5033124;28;20222;-84
2022/03/06 03:00:46;;;;;;;5.72;1.60;;;23.90;99.90;;;;;;5042908;28;20205;-87
2022/03/06 03:03:17;;;;;;;4.60;1.60;;;23.90;99.90;;;;;;5053324;28;20637;-84
2022/03/06 03:05:48;;;;;;;6.88;1.48;;;23.80;99.90;;;;;;5053579;28;20190;-86
2022/03/06 03:08:20;;;;;;;5.20;1.45;;;23.80;99.90;;;;;;5050666;28;20186;-87
2022/03/06 03:10:52;;;;;;;7.65;1.50;;;23.60;99.90;;;;;;5041996;28;20182;-85
2022/03/06 03:13:22;;;;;;;7.03;1.48;;;23.50;99.90;;;;;;5046350;28;20647;-84
2022/03/06 03:15:54;;;;;;;4.82;1.30;;;23.50;99.90;;;;;;5046093;28;20198;-86
2022/03/06 03:18:25;;;;;;;7.38;1.42;;;23.40;99.90;;;;;;5033295;28;20222;-88
2022/03/06 03:20:55;;;;;;;6.47;1.35;;;23.40;99.90;;;;;;5045456;28;20252;-86
2022/03/06 03:23:28;;;;;;;7.43;1.27;;;23.30;99.90;;;;;;5040819;28;20201;-89
2022/03/06 03:25:59;;;;;;;8.48;1.40;;;23.30;99.90;;;;;;5038892;28;20198;-90
2022/03/06 03:28:30;;;;;;;5.53;1.20;;;23.20;99.90;;;;;;5041626;28;20247;-90
2022/03/06 03:31:02;;;;;;;7.53;1.50;;;23.20;99.90;;;;;;5038988;28;20248;-92
2022/03/06 03:33:32;;;;;;;5.55;1.30;;;23.10;99.90;;;;;;5041395;28;20204;-92
2022/03/06 03:36:03;;;;;;;9.88;1.85;;;23.00;99.90;;;;;;5041130;28;20189;-86
2022/03/06 03:38:36;;;;;;;9.75;1.60;;;23.00;99.90;;;;;;5048025;28;20269;-87
2022/03/06 03:41:07;;;;;;;6.32;1.58;;;23.10;99.90;;;;;;5045100;28;20201;-90
2022/03/06 03:43:37;;;;;;;7.63;1.63;;;23.20;99.90;;;;;;5040006;28;20239;-90
2022/03/06 03:46:08;;;;;;;7.82;1.60;;;23.20;99.90;;;;;;5038261;28;20657;-93
2022/03/06 03:48:39;;;;;;;7.75;1.50;;;23.30;99.90;;;;;;5049951;28;20649;-84
2022/03/06 03:51:10;;;;;;;8.10;1.45;;;23.30;99.90;;;;;;5043630;28;20186;-87
2022/03/06 03:53:42;;;;;;;10.60;1.40;;;23.40;99.90;;;;;;5042246;28;20185;-92
2022/03/06 03:56:15;;;;;;;5.18;1.40;;;23.50;99.90;;;;;;5044628;28;20202;-90
2022/03/06 03:58:53;;;;;;;4.70;1.15;;;23.70;99.90;;;;;;5038139;28;20225;-90
2022/03/06 04:02:16;;;;;;;6.20;1.33;;;23.70;99.90;;;;;;5056258;28;20200;-92
2022/03/06 04:04:53;;;;;;;9.13;1.40;;;23.90;99.90;;;;;;5049541;28;20535;-92
2022/03/06 04:07:27;;;;;;;7.20;1.40;;;24.00;99.90;;;;;;5037988;28;20293;-87
2022/03/06 04:10:31;;;;;;;6.78;1.42;;;23.90;99.90;;;;;;5046160;28;20692;-85
2022/03/06 04:13:16;;;;;;;6.60;1.40;;;23.80;99.90;;;;;;5044587;28;20711;-89
2022/03/06 04:18:49;;;;;;;7.80;1.65;;;23.50;99.90;;;;;;5039701;28;20689;-89
2022/03/06 04:21:20;;;;;;;6.55;1.30;;;23.20;99.90;;;;;;5047442;28;20626;-84
2022/03/06 04:23:50;;;;;;;6.35;1.60;;;22.90;99.90;;;;;;5045485;28;20704;-83
2022/03/06 04:26:23;;;;;;;7.90;1.50;;;22.70;99.90;;;;;;5036505;28;20206;-81
2022/03/06 04:28:54;;;;;;;7.13;1.65;;;22.50;99.90;;;;;;5054531;28;20209;-82
2022/03/06 04:31:24;;;;;;;8.40;1.60;;;22.30;99.90;;;;;;5044427;28;20194;-80
2022/03/06 04:33:55;;;;;;;6.40;1.60;;;22.20;99.90;;;;;;5047983;28;20194;-83
2022/03/06 04:36:26;;;;;;;6.78;1.80;;;22.10;99.90;;;;;;5035912;28;20197;-85
2022/03/06 04:38:57;;;;;;;9.18;1.70;;;22.00;99.90;;;;;;5046061;28;20229;-85
2022/03/06 04:41:29;;;;;;;9.20;1.67;;;22.00;99.90;;;;;;5043989;28;20268;-85
2022/03/06 04:44:00;;;;;;;4.85;1.40;;;21.90;99.90;;;;;;5054003;28;20232;-85
2022/03/06 04:46:31;;;;;;;7.95;1.70;;;21.90;99.90;;;;;;5044289;28;20556;-84
2022/03/06 04:49:01;;;;;;;7.15;1.30;;;21.90;99.90;;;;;;5047159;28;20248;-85
2022/03/06 04:51:32;;;;;;;7.93;1.65;;;21.80;99.90;;;;;;5043323;28;20544;-87
2022/03/06 04:54:03;;;;;;;8.63;1.20;;;21.80;99.90;;;;;;5039606;28;20194;-89
2022/03/06 04:56:35;;;;;;;9.95;1.55;;;21.80;99.90;;;;;;5047611;28;20190;-87
2022/03/06 04:59:06;;;;;;;7.93;1.42;;;21.80;99.90;;;;;;5037064;28;20213;-89
2022/03/06 05:01:37;;;;;;;5.20;1.23;;;21.80;99.90;;;;;;5042558;28;20194;-85
2022/03/06 05:04:08;;;;;;;6.70;1.40;;;21.80;99.90;;;;;;5042564;28;20242;-85
2022/03/06 05:06:38;;;;;;;8.95;1.73;;;21.80;99.90;;;;;;5055245;28;20196;-83
2022/03/06 05:09:09;;;;;;;3.88;1.23;;;21.80;99.90;;;;;;5045775;28;20194;-85
2022/03/06 05:11:42;;;;;;;7.50;1.30;;;21.80;99.90;;;;;;5045717;28;20689;-84
2022/03/06 05:14:13;;;;;;;6.45;1.40;;;21.80;99.90;;;;;;5041588;28;20642;-81
2022/03/06 05:16:44;;;;;;;8.10;1.60;;;21.80;99.90;;;;;;5052811;28;20552;-85
2022/03/06 05:19:14;;;;;;;6.22;1.52;;;21.80;99.90;;;;;;5044884;28;20705;-86
2022/03/06 05:21:45;;;;;;;5.70;1.40;;;21.90;99.90;;;;;;5052894;28;20251;-82
2022/03/06 05:24:16;;;;;;;6.85;1.80;;;21.90;99.90;;;;;;5044446;28;20191;-81
2022/03/06 05:26:49;;;;;;;6.00;1.52;;;22.00;99.90;;;;;;5051224;28;20190;-84
2022/03/06 05:29:20;;;;;;;7.35;1.73;;;22.00;99.90;;;;;;5045926;28;20240;-82
2022/03/06 05:31:50;;;;;;;7.03;1.90;;;22.10;99.90;;;;;;5035857;28;20261;-82
2022/03/06 05:34:21;;;;;;;7.72;1.65;;;22.20;99.90;;;;;;5045756;28;20193;-83
2022/03/06 05:36:52;;;;;;;4.20;1.73;;;22.30;99.90;;;;;;5047363;28;20614;-81
2022/03/06 05:39:22;;;;;;;6.18;1.73;;;22.30;99.90;;;;;;5039014;28;20666;-83
2022/03/06 05:41:55;;;;;;;5.63;1.63;;;22.30;99.90;;;;;;5047323;28;20638;-83
2022/03/06 05:44:26;;;;;;;5.28;1.88;;;22.40;99.90;;;;;;5049651;28;20190;-81
2022/03/06 05:46:56;;;;;;;6.65;1.95;;;22.40;99.90;;;;;;5043903;28;20186;-81
2022/03/06 05:49:27;;;;;;;6.78;1.95;;;22.40;99.90;;;;;;5039137;28;20599;-81
2022/03/06 05:51:58;;;;;;;5.20;1.88;;;22.40;99.90;;;;;;5041165;28;20194;-81
2022/03/06 05:54:28;;;;;;;6.15;1.67;;;22.50;99.90;;;;;;5054186;28;20200;-83
2022/03/06 05:57:01;;;;;;;3.83;1.38;;;22.50;99.90;;;;;;5047381;28;20637;-83
2022/03/06 05:59:32;;;;;;;6.90;1.65;;;22.50;99.90;;;;;;5044293;28;20214;-82
2022/03/06 06:02:02;;;;;;;9.38;1.70;;;22.50;99.90;;;;;;5042164;28;20705;-83
2022/03/06 06:04:33;;;;;;;5.65;1.60;;;22.50;99.90;;;;;;5046442;28;20641;-82
2022/03/06 06:07:04;;;;;;;5.10;1.58;;;22.60;99.90;;;;;;5035078;28;20201;-82
2022/03/06 06:09:34;;;;;;;7.38;1.60;;;22.60;99.90;;;;;;5045224;28;20186;-82
2022/03/06 06:12:07;;;;;;;7.57;1.73;;;22.60;99.90;;;;;;5038603;28;20214;-82
2022/03/06 06:14:38;;;;;;;5.07;1.75;;;22.70;99.90;;;;;;5046035;28;20706;-82
2022/03/06 06:17:09;;;;;;;6.32;1.67;;;22.70;99.90;;;;;;5040951;28;20186;-82
2022/03/06 06:19:39;;;;;;;6.68;1.65;;;22.80;99.90;;;;;;5046051;28;20750;-82
2022/03/06 06:22:10;;;;;;;7.65;1.83;;;22.80;99.90;;;;;;5041993;28;20190;-81
2022/03/06 06:24:41;;;;;;;8.02;1.90;;;22.80;99.90;;;;;;5040424;28;20198;-81
2022/03/06 06:27:13;;;;;;;10.48;1.70;;;22.90;99.90;;;;;;5041259;28;20194;-82
2022/03/06 06:29:44;;;;;;;15.10;2.33;;;22.90;99.90;;;;;;5038908;28;20771;-82
2022/03/06 06:32:15;;;;;;;10.80;1.73;;;23.00;99.90;;;;;;5025872;28;20225;-81
2022/03/06 06:34:46;;;;;;;8.13;1.90;;;23.00;99.90;;;;;;5045554;28;20190;-81
2022/03/06 06:37:17;;;;;;;13.07;2.20;;;23.00;99.90;;;;;;5047327;28;20248;-81
2022/03/06 06:39:48;;;;;;;7.85;1.70;;;23.10;99.90;;;;;;5052158;28;20550;-83
2022/03/06 06:42:20;;;;;;;15.13;2.00;;;23.10;99.90;;;;;;5033561;28;20197;-82
2022/03/06 06:44:51;;;;;;;7.13;1.58;;;23.00;99.90;;;;;;5042241;28;20577;-82
2022/03/06 06:47:22;;;;;;;7.72;1.40;;;23.10;99.90;;;;;;5042000;28;20197;-81
2022/03/06 06:49:52;;;;;;;6.97;1.50;;;23.10;99.90;;;;;;5042440;28;20186;-82
2022/03/06 06:52:23;;;;;;;5.05;1.70;;;23.10;99.90;;;;;;5033456;28;20240;-81
2022/03/06 06:54:54;;;;;;;9.38;1.55;;;23.10;99.90;;;;;;5044678;28;20191;-81
2022/03/06 06:57:26;;;;;;;8.95;1.92;;;23.10;99.90;;;;;;5048196;28;20189;-81
2022/03/06 06:59:57;;;;;;;7.47;1.90;;;23.10;99.90;;;;;;5044311;28;20213;-81
2022/03/06 07:02:27;;;;;;;10.52;1.88;;;23.10;99.90;;;;;;5037750;28;20248;-81
2022/03/06 07:04:58;;;;;;;7.57;1.42;;;23.10;99.90;;;;;;5045440;28;20797;-81
2022/03/06 07:07:29;;;;;;;8.50;1.83;;;23.20;99.90;;;;;;5033242;28;20194;-81
2022/03/06 07:09:59;;;;;;;8.52;1.80;;;23.20;99.90;;;;;;5044154;28;20193;-81
2022/03/06 07:12:32;;;;;;;6.38;1.35;;;23.20;99.90;;;;;;5042662;28;20809;-80
2022/03/06 07:15:02;;;;;;;5.50;1.60;;;23.30;99.90;;;;;;5051554;28;20193;-81
2022/03/06 07:17:33;;;;;;;5.93;1.48;;;23.20;99.90;;;;;;5047331;28;20194;-81
2022/03/06 07:20:04;;;;;;;10.38;1.83;;;23.20;99.90;;;;;;5032915;28;20284;-81
2022/03/06 07:22:35;;;;;;;7.35;1.50;;;23.20;99.90;;;;;;5033134;28;20273;-81
2022/03/06 07:25:06;;;;;;;9.00;1.63;;;23.20;99.90;;;;;;5045263;28;20201;-81
2022/03/06 07:27:38;;;;;;;5.95;1.70;;;23.10;99.90;;;;;;5034695;28;20190;-81
2022/03/06 07:30:10;;;;;;;7.15;1.60;;;23.10;99.90;;;;;;5046386;28;20221;-80
2022/03/06 07:32:44;;;;;;;8.93;2.00;;;23.10;99.90;;;;;;5056944;28;20192;-81
2022/03/06 07:35:16;;;;;;;7.82;1.80;;;23.10;99.90;;;;;;5056734;28;20254;-81
2022/03/06 07:37:47;;;;;;;7.03;1.65;;;23.10;99.90;;;;;;5056600;28;20233;-81
2022/03/06 07:40:19;;;;;;;10.15;1.98;;;23.10;99.90;;;;;;5056759;28;20224;-81
2022/03/06 07:42:51;;;;;;;8.27;1.70;;;23.00;99.90;;;;;;5043193;28;20202;-80
2022/03/06 07:45:22;;;;;;;9.45;1.90;;;23.00;99.90;;;;;;5036815;28;20252;-81
2022/03/06 07:47:52;;;;;;;8.15;1.65;;;23.00;99.90;;;;;;5036482;28;20203;-81
2022/03/06 07:50:23;;;;;;;10.10;1.80;;;23.00;99.90;;;;;;5036770;28;20240;-81
2022/03/06 07:52:56;;;;;;;10.07;1.95;;;23.00;99.90;;;;;;5036947;28;20226;-81
2022/03/06 07:55:26;;;;;;;9.48;1.90;;;23.00;99.90;;;;;;5036626;28;20194;-81
2022/03/06 07:57:59;;;;;;;11.07;2.20;;;23.00;99.90;;;;;;5036541;28;20190;-81
2022/03/06 08:00:30;;;;;;;9.27;1.83;;;23.00;99.90;;;;;;5036430;28;20222;-81
2022/03/06 08:03:01;;;;;;;12.95;2.00;;;23.00;99.90;;;;;;5036189;28;20197;-81
2022/03/06 08:05:31;;;;;;;8.73;2.08;;;22.90;99.90;;;;;;5036494;28;20194;-81
2022/03/06 08:08:02;;;;;;;8.10;1.80;;;22.90;99.90;;;;;;5036344;28;20197;-80
2022/03/06 08:10:33;;;;;;;12.88;2.25;;;23.00;99.90;;;;;;5036423;28;20190;-82
2022/03/06 08:13:08;;;;;;;15.85;2.63;;;22.90;99.90;;;;;;5048356;28;20275;-85
2022/03/06 08:15:39;;;;;;;10.07;2.17;;;23.00;99.90;;;;;;5036212;28;20646;-80
2022/03/06 08:18:09;;;;;;;7.78;1.75;;;22.90;99.90;;;;;;5046804;28;20197;-80
2022/03/06 08:20:40;;;;;;;7.70;2.10;;;22.70;99.90;;;;;;5056020;28;20242;-82
2022/03/06 08:23:11;;;;;;;6.18;1.60;;;22.60;99.90;;;;;;5056031;28;20185;-87
2022/03/06 08:25:41;;;;;;;6.45;1.70;;;22.60;99.90;;;;;;5055902;28;20549;-84
2022/03/06 08:28:14;;;;;;;7.63;1.92;;;22.70;99.90;;;;;;5055925;28;20189;-88
2022/03/06 08:30:45;;;;;;;9.35;1.75;;;22.80;99.90;;;;;;5041656;28;20194;-88
2022/03/06 08:33:16;;;;;;;14.63;2.15;;;22.80;99.90;;;;;;5036052;28;20237;-88
2022/03/06 08:35:46;;;;;;;10.40;2.13;;;22.90;99.90;;;;;;5035876;28;20202;-88
2022/03/06 08:38:17;;;;;;;12.07;2.40;;;22.90;99.90;;;;;;5034900;28;20710;-89
2022/03/06 08:40:47;;;;;;;11.52;2.63;;;23.00;99.90;;;;;;5035652;28;20218;-81
2022/03/06 08:43:20;;;;;;;7.60;1.73;;;23.00;99.90;;;;;;5035715;28;20328;-84
2022/03/06 08:45:51;;;;;;;12.88;2.42;;;23.00;99.90;;;;;;5035520;28;20194;-82
2022/03/06 08:48:22;;;;;;;8.32;2.22;;;23.00;99.90;;;;;;5035515;28;20190;-82
2022/03/06 08:50:53;;;;;;;8.63;2.10;;;23.00;99.90;;;;;;5035620;28;20277;-85
2022/03/06 08:53:24;;;;;;;16.55;2.47;;;23.00;99.90;;;;;;5017956;28;20202;-87
2022/03/06 08:55:55;;;;;;;19.23;3.08;;;23.00;99.90;;;;;;5035641;28;20574;-91
2022/03/06 08:58:27;;;;;;;19.55;3.05;;;23.00;99.90;;;;;;5036499;28;20631;-92
2022/03/06 09:00:58;;;;;;;18.98;2.60;;;23.00;99.90;;;;;;5037111;28;20348;-93
2022/03/06 09:03:29;;;;;;;14.32;2.25;;;23.10;99.90;;;;;;5035992;28;20590;-93
2022/03/06 09:05:59;;;;;;;16.35;2.40;;;23.10;99.90;;;;;;5039507;28;20194;-89
2022/03/06 09:08:30;;;;;;;20.10;2.30;;;23.00;99.90;;;;;;5055401;28;20587;-88
2022/03/06 09:11:00;;;;;;;10.68;1.70;;;23.10;99.90;;;;;;5053637;28;20247;-92
2022/03/06 09:13:33;;;;;;;12.07;1.95;;;23.10;99.90;;;;;;5043033;28;20200;-91
2022/03/06 09:16:04;;;;;;;14.52;2.10;;;23.00;99.90;;;;;;5055117;28;20603;-90
2022/03/06 09:18:34;;;;;;;16.45;1.75;;;23.00;99.90;;;;;;5040869;28;20530;-93
2022/03/06 09:21:05;;;;;;;14.80;1.80;;;23.00;99.90;;;;;;5035377;28;20222;-91
2022/03/06 09:23:36;;;;;;;18.85;2.28;;;23.00;99.90;;;;;;5035351;28;20643;-90
2022/03/06 09:26:06;;;;;;;14.80;2.03;;;23.00;99.90;;;;;;5035536;28;20586;-87
2022/03/06 09:28:39;;;;;;;16.15;2.13;;;23.00;99.90;;;;;;5035058;28;20198;-86
2022/03/06 09:31:10;;;;;;;12.73;2.13;;;23.00;99.90;;;;;;5052633;28;20252;-90
2022/03/06 09:33:40;;;;;;;16.55;1.95;;;23.00;99.90;;;;;;5054747;28;20197;-88
2022/03/06 09:36:11;;;;;;;13.60;2.10;;;23.00;99.90;;;;;;5054726;28;20190;-86
2022/03/06 09:38:42;;;;;;;25.33;2.25;;;23.00;99.90;;;;;;5054397;28;20279;-85
2022/03/06 09:41:18;;;;;;;16.98;1.98;;;23.00;99.90;;;;;;5054551;28;20566;-86
2022/03/06 09:43:52;;;;;;;16.98;2.08;;;23.00;99.90;;;;;;5054528;28;20195;-88
2022/03/06 09:46:24;;;;;;;16.60;1.98;;;23.00;99.90;;;;;;5054654;28;20736;-85
2022/03/06 09:48:55;;;;;;;12.82;1.70;;;23.00;99.90;;;;;;5054473;28;20212;-87
2022/03/06 09:51:25;;;;;;;15.93;1.80;;;22.90;99.90;;;;;;5053977;28;20668;-86
2022/03/06 09:53:56;;;;;;;11.43;1.45;;;22.90;99.90;;;;;;5054357;28;20731;-84
2022/03/06 09:56:27;;;;;;;12.35;1.52;;;22.80;99.90;;;;;;5054253;28;20194;-86
2022/03/06 09:58:59;;;;;;;16.58;2.03;;;22.80;99.90;;;;;;5054083;28;20235;-85
2022/03/06 10:01:30;;;;;;;19.67;2.13;;;22.70;99.90;;;;;;5054076;28;20218;-86
2022/03/06 10:04:21;;;;;;;21.42;2.22;;;22.80;99.90;;;;;;5054075;28;20186;-82
2022/03/06 10:07:02;;;;;;;22.20;2.30;;;22.80;99.90;;;;;;5042782;28;20202;-85
2022/03/06 10:09:40;;;;;;;20.42;2.38;;;22.90;99.90;;;;;;5034134;28;20600;-84
2022/03/06 10:12:22;;;;;;;32.10;2.60;;;22.90;99.90;;;;;;5041729;28;20244;-84
2022/03/06 10:14:56;;;;;;;22.30;2.40;;;22.90;99.90;;;;;;5036019;28;20187;-84
2022/03/06 10:17:28;;;;;;;26.13;2.40;;;22.90;99.90;;;;;;5039343;28;20700;-83
2022/03/06 10:20:00;;;;;;;17.77;2.70;;;22.90;99.90;;;;;;5053791;28;20229;-83
2022/03/06 10:22:32;;;;;;;19.02;2.38;;;22.90;99.90;;;;;;5053853;28;20251;-83
2022/03/06 10:25:09;;;;;;;15.52;2.13;;;22.80;99.90;;;;;;5053713;28;20190;-83
2022/03/06 10:27:48;;;;;;;11.23;1.42;;;22.80;99.90;;;;;;5053407;28;20740;-83
2022/03/06 10:30:44;;;;;;;14.88;1.50;;;22.90;99.90;;;;;;5042463;28;20189;-83
2022/03/06 10:33:23;;;;;;;11.93;1.30;;;22.90;99.90;;;;;;5028246;28;20193;-84
2022/03/06 10:35:58;;;;;;;12.30;1.50;;;22.90;99.90;;;;;;5033860;28;20252;-84
2022/03/06 10:38:31;;;;;;;13.57;1.65;;;22.90;99.90;;;;;;5045231;28;20325;-83
2022/03/06 10:41:12;;;;;;;12.10;1.45;;;22.90;99.90;;;;;;5053439;28;20688;-84
2022/03/06 10:43:43;;;;;;;10.55;1.33;;;22.90;99.90;;;;;;5053299;28;20193;-83
2022/03/06 10:46:17;;;;;;;8.75;1.45;;;23.00;99.90;;;;;;5053429;28;20239;-83
2022/03/06 10:48:57;;;;;;;9.95;1.40;;;23.00;99.90;;;;;;5053403;28;20189;-82
2022/03/06 10:51:28;;;;;;;7.65;1.38;;;22.90;99.90;;;;;;5035053;28;20185;-82
2022/03/06 10:53:59;;;;;;;11.73;1.52;;;22.90;99.90;;;;;;5033368;28;20244;-81
2022/03/06 10:56:31;;;;;;;10.10;1.48;;;22.90;99.90;;;;;;5033222;28;20290;-82
2022/03/06 10:59:02;;;;;;;13.27;1.65;;;22.90;99.90;;;;;;5033352;28;20194;-82
2022/03/06 11:01:37;;;;;;;12.80;1.65;;;22.90;99.90;;;;;;5032554;28;20214;-81
2022/03/06 11:04:09;;;;;;;14.13;1.83;;;23.00;99.90;;;;;;5033343;28;20186;-81
2022/03/06 11:06:44;;;;;;;16.92;1.88;;;23.00;99.90;;;;;;5033174;28;20202;-82
2022/03/06 11:09:15;;;;;;;14.43;1.60;;;23.00;99.90;;;;;;5033243;28;20186;-81
2022/03/06 11:11:47;;;;;;;12.90;1.45;;;23.00;99.90;;;;;;5037295;28;20217;-82
2022/03/06 11:14:18;;;;;;;16.88;2.00;;;23.00;99.90;;;;;;5039912;28;20194;-82
2022/03/06 11:16:51;;;;;;;15.90;1.98;;;23.00;99.90;;;;;;5033439;28;20190;-81
2022/03/06 11:19:21;;;;;;;16.15;1.95;;;23.00;99.90;;;;;;5053098;28;20193;-81
2022/03/06 11:21:59;;;;;;;10.93;1.55;;;23.00;99.90;;;;;;5052990;28;20755;-81
2022/03/06 11:24:32;;;;;;;12.60;1.80;;;23.00;99.90;;;;;;5053024;28;20189;-82
2022/03/06 11:27:32;;;;;;;15.18;1.60;;;23.00;99.90;;;;;;5052659;28;20193;-81
2022/03/06 11:30:18;;;;;;;13.88;1.67;;;23.10;99.90;;;;;;5043845;28;20669;-81
2022/03/06 11:33:01;;;;;;;12.82;1.80;;;23.00;99.90;;;;;;5033053;28;20716;-81
2022/03/06 11:35:36;;;;;;;14.52;2.10;;;23.00;99.90;;;;;;5033003;28;20198;-82
2022/03/06 11:38:08;;;;;;;8.30;1.45;;;23.10;99.90;;;;;;5032815;28;20372;-80
2022/03/06 11:40:52;;;;;;;16.73;1.88;;;23.10;99.90;;;;;;5032668;28;20272;-82
2022/03/06 11:43:38;;;;;;;8.27;1.73;;;23.10;99.90;;;;;;5032833;28;20191;-85
2022/03/06 11:46:12;;;;;;;12.43;2.08;;;23.10;99.90;;;;;;5032942;28;20638;-85
2022/03/06 11:49:08;;;;;;;10.68;1.80;;;23.10;99.90;;;;;;5032905;28;20190;-85
2022/03/06 11:51:46;;;;;;;15.05;2.20;;;23.10;99.90;;;;;;5032937;28;20190;-86
2022/03/06 11:54:24;;;;;;;8.82;1.85;;;23.10;99.90;;;;;;5032680;28;20630;-86
2022/03/06 11:57:03;;;;;;;16.23;2.22;;;23.10;99.90;;;;;;5033039;28;20288;-86
2022/03/06 11:59:39;;;;;;;15.25;2.42;;;23.00;99.90;;;;;;5033234;28;20190;-91
2022/03/06 12:02:20;;;;;;;14.85;2.80;;;23.00;99.90;;;;;;5032764;28;20260;-83
2022/03/06 12:04:56;;;;;;;12.20;2.67;;;23.00;99.90;;;;;;5032730;28;20194;-87
2022/03/06 12:07:30;;;;;;;11.88;2.60;;;22.90;99.90;;;;;;5048863;28;20197;-90
2022/03/06 12:10:08;;;;;;;17.60;3.10;;;22.90;99.90;;;;;;5052357;28;20665;-86
2022/03/06 12:12:40;;;;;;;12.48;2.55;;;22.90;99.90;;;;;;5039961;28;20226;-85
2022/03/06 12:15:27;;;;;;;15.18;2.72;;;22.90;99.90;;;;;;5036352;28;20210;-88
2022/03/06 12:18:04;;;;;;;14.10;2.38;;;22.90;99.90;;;;;;5046256;28;20190;-87
2022/03/06 12:20:46;;;;;;;12.55;2.58;;;22.90;99.90;;;;;;5056103;28;20250;-88
2022/03/06 12:23:28;;;;;;;18.25;2.60;;;22.90;99.90;;;;;;5055929;28;20194;-85
2022/03/06 12:26:01;;;;;;;14.82;2.72;;;22.90;99.90;;;;;;5056137;28;20190;-88
2022/03/06 12:28:42;;;;;;;21.75;3.30;;;22.90;99.90;;;;;;5056029;28;20194;-88
2022/03/06 12:31:34;;;;;;;26.88;3.90;;;22.90;99.90;;;;;;5037490;28;20198;-90
2022/03/06 12:34:23;;;;;;;23.63;3.40;;;22.90;99.90;;;;;;5036065;28;20190;-89
2022/03/06 12:36:59;;;;;;;27.90;3.28;;;22.90;99.90;;;;;;5035988;28;20216;-87
2022/03/06 12:39:31;;;;;;;25.75;3.80;;;22.90;99.90;;;;;;5035690;28;20194;-87
2022/03/06 12:42:01;;;;;;;27.90;3.72;;;23.00;99.90;;;;;;5035818;28;20222;-86
2022/03/06 12:44:36;;;;;;;23.98;3.90;;;23.00;99.90;;;;;;5035804;28;20256;-85
2022/03/06 12:47:08;;;;;;;17.45;3.40;;;23.00;99.90;;;;;;5035747;28;20646;-87
2022/03/06 12:49:38;;;;;;;22.75;4.15;;;23.00;99.90;;;;;;5035691;28;20194;-87
2022/03/06 12:52:12;;;;;;;26.40;4.20;;;23.00;99.90;;;;;;5034843;28;20210;-86
2022/03/06 12:54:43;;;;;;;22.48;3.50;;;23.00;99.90;;;;;;5035545;28;20193;-86
2022/03/06 12:57:13;;;;;;;22.13;3.63;;;23.10;99.90;;;;;;5035589;28;20248;-85
2022/03/06 12:59:46;;;;;;;20.30;3.35;;;23.10;99.90;;;;;;5035511;28;20278;-83
2022/03/06 13:02:20;;;;;;;18.80;3.17;;;23.20;99.90;;;;;;5035385;28;20214;-85
2022/03/06 13:04:52;;;;;;;21.95;3.13;;;23.20;99.90;;;;;;5047586;28;20200;-84
2022/03/06 13:07:29;;;;;;;19.40;3.50;;;23.10;99.90;;;;;;5035027;28;20717;-84
2022/03/06 13:10:02;;;;;;;22.45;4.32;;;23.10;99.90;;;;;;5046246;28;20191;-84
2022/03/06 13:12:37;;;;;;;22.77;3.70;;;23.10;99.90;;;;;;5043098;28;20236;-82
2022/03/06 13:15:18;;;;;;;16.35;3.13;;;23.10;99.90;;;;;;5035232;28;20194;-83